Arcadia Salute — 7JRH — position and weather

sailwx.info

Track history (hours):
 
Tides and Currents Weather Stations Pressure Air Temp Water Temp Dewpoint Dewpoint Depression Visibility Wind Speed Wind Dir Waves Ship Positions

Arcadia Salute

Last reported at 2017-Oct-20 11:20 UTC. Time now 2017-Nov-21 14:03 UTC.
Position N 22°09' E 120°08'.
Warning: this ship's position is 32 days out of date.

Length 235 m; draft 7.8 m.

Type: Cargo ship. MMSI: 432977000.

Date/timePositionNaut miles runAvg speedWind from/ knotsBaromVisibWave heightAir tempDewpointWater temp
2017-Oct-20 11:20N 22°09' E 120°08'513.5
2017-Oct-20 11:00N 22°13' E 120°08'612.6
2017-Oct-20 10:30N 22°19' E 120°10'713.3
2017-Oct-20 10:00N 22°26' E 120°11'612.8
2017-Oct-20 09:30N 22°32' E 120°13'510.5
2017-Oct-20 09:00N 22°33' E 120°18'2 4.2
2017-Oct-20 08:31N 22°35' E 120°18'1 1.1
2017-Oct-20 08:00N 22°35' E 120°17'0 0.0
2017-Oct-20 07:30N 22°35' E 120°17'0 0.0
2017-Oct-20 07:00N 22°35' E 120°17'0 0.0
2017-Oct-20 06:30N 22°35' E 120°17'0 0.0
2017-Oct-20 06:00N 22°35' E 120°17'0 0.0
2017-Oct-20 05:30N 22°35' E 120°17'0 0.0
2017-Oct-20 04:57N 22°35' E 120°17'0 0.0
2017-Oct-20 04:30N 22°35' E 120°17'0 0.0
2017-Oct-20 03:57N 22°35' E 120°17'0 0.0
2017-Oct-20 03:30N 22°35' E 120°17'0 0.0
2017-Oct-20 03:00N 22°35' E 120°17'0 0.0
2017-Oct-20 02:27N 22°35' E 120°17'0 0.0
2017-Oct-20 01:54N 22°35' E 120°17'0 0.0
2017-Oct-20 01:30N 22°35' E 120°17'0 0.0
2017-Oct-20 00:57N 22°35' E 120°17'0 0.0
2017-Oct-20 00:30N 22°35' E 120°17'1 2.5
2017-Oct-20 00:00N 22°34' E 120°18'2 3.0
2017-Oct-19 23:30N 22°33' E 120°18'3 6.0
2017-Oct-19 23:01N 22°32' E 120°15'4 7.7
2017-Oct-19 22:30N 22°33' E 120°11'4 7.3
2017-Oct-19 22:00N 22°35' E 120°07'4 7.2
2017-Oct-19 21:30N 22°37' E 120°04'4 7.1
2017-Oct-19 21:00N 22°39' E 120°01'4 7.9
2017-Oct-19 20:29N 22°42' E 119°58'4 7.6
2017-Oct-19 19:56N 22°46' E 119°57'  
Track history (hours):
 
Tides and Currents Weather Stations Pressure Air Temp Water Temp Dewpoint Dewpoint Depression Visibility Wind Speed Wind Dir Waves Ship Positions

Arcadia Salute

Last reported at 2017-Oct-20 11:20 UTC. Time now 2017-Nov-21 14:03 UTC.
Position N 22°09' E 120°08'.
Warning: this ship's position is 32 days out of date.

Length 235 m; draft 7.8 m.

Type: Cargo ship. MMSI: 432977000.

Date/timePositionNaut miles runAvg speedWind from/ knotsBaromVisibWave heightAir tempDewpointWater temp
2017-Oct-20 11:20N 22°09' E 120°08'513.5
2017-Oct-20 11:00N 22°13' E 120°08'612.6
2017-Oct-20 10:30N 22°19' E 120°10'713.3
2017-Oct-20 10:00N 22°26' E 120°11'612.8
2017-Oct-20 09:30N 22°32' E 120°13'510.5
2017-Oct-20 09:00N 22°33' E 120°18'2 4.2
2017-Oct-20 08:31N 22°35' E 120°18'1 1.1
2017-Oct-20 08:00N 22°35' E 120°17'0 0.0
2017-Oct-20 07:30N 22°35' E 120°17'0 0.0
2017-Oct-20 07:00N 22°35' E 120°17'0 0.0
2017-Oct-20 06:30N 22°35' E 120°17'0 0.0
2017-Oct-20 06:00N 22°35' E 120°17'0 0.0
2017-Oct-20 05:30N 22°35' E 120°17'0 0.0
2017-Oct-20 04:57N 22°35' E 120°17'0 0.0
2017-Oct-20 04:30N 22°35' E 120°17'0 0.0
2017-Oct-20 03:57N 22°35' E 120°17'0 0.0
2017-Oct-20 03:30N 22°35' E 120°17'0 0.0
2017-Oct-20 03:00N 22°35' E 120°17'0 0.0
2017-Oct-20 02:27N 22°35' E 120°17'0 0.0
2017-Oct-20 01:54N 22°35' E 120°17'0 0.0
2017-Oct-20 01:30N 22°35' E 120°17'0 0.0
2017-Oct-20 00:57N 22°35' E 120°17'0 0.0
2017-Oct-20 00:30N 22°35' E 120°17'1 2.5
2017-Oct-20 00:00N 22°34' E 120°18'2 3.0
2017-Oct-19 23:30N 22°33' E 120°18'3 6.0
2017-Oct-19 23:01N 22°32' E 120°15'4 7.7
2017-Oct-19 22:30N 22°33' E 120°11'4 7.3
2017-Oct-19 22:00N 22°35' E 120°07'4 7.2
2017-Oct-19 21:30N 22°37' E 120°04'4 7.1
2017-Oct-19 21:00N 22°39' E 120°01'4 7.9
2017-Oct-19 20:29N 22°42' E 119°58'4 7.6
2017-Oct-19 19:56N 22°46' E 119°57'  

Dump ship's entire track history